createdAt,value
2023-04-24T00:01:02.307Z,63.64
2023-04-24T00:03:31.129Z,63.76
2023-04-24T00:06:00.108Z,63.91
2023-04-24T00:08:28.183Z,63.59
2023-04-24T00:10:56.554Z,63.47
2023-04-24T00:13:24.531Z,63.76
2023-04-24T00:15:53.863Z,63.39
2023-04-24T00:18:21.693Z,63.34
2023-04-24T00:20:49.575Z,63.20
2023-04-24T00:23:17.383Z,63.93
2023-04-24T00:25:45.284Z,64.20
2023-04-24T00:28:13.095Z,64.27
2023-04-24T00:30:41.062Z,64.42
2023-04-24T00:33:10.625Z,64.37
2023-04-24T00:35:38.683Z,64.43
2023-04-24T00:38:06.461Z,63.85
2023-04-24T00:40:34.200Z,64.27
2023-04-24T00:43:01.984Z,63.19
2023-04-24T00:45:32.336Z,64.20
2023-04-24T00:48:00.423Z,63.38
2023-04-24T00:50:30.652Z,62.86
2023-04-24T00:52:58.540Z,63.12
2023-04-24T00:55:27.881Z,63.52
2023-04-24T00:57:56.070Z,63.05
2023-04-24T01:00:24.362Z,63.61
2023-04-24T01:02:54.273Z,63.65
2023-04-24T01:05:22.185Z,63.67
2023-04-24T01:07:51.897Z,64.16
2023-04-24T01:10:21.458Z,64.19
2023-04-24T01:12:50.323Z,64.66
2023-04-24T01:15:18.348Z,64.57
2023-04-24T01:17:46.648Z,64.83
2023-04-24T01:20:16.716Z,65.30
2023-04-24T01:22:46.157Z,65.31
2023-04-24T01:25:14.165Z,65.73
2023-04-24T01:27:42.090Z,66.03
2023-04-24T01:30:11.419Z,66.46
2023-04-24T01:32:40.254Z,67.11
2023-04-24T01:35:09.768Z,67.06
2023-04-24T01:37:38.349Z,67.68
2023-04-24T01:40:09.294Z,67.65
2023-04-24T01:42:37.754Z,67.85
2023-04-24T01:45:07.388Z,68.70
2023-04-24T01:47:36.580Z,68.77
2023-04-24T01:50:05.549Z,68.27
2023-04-24T01:52:34.400Z,67.95
2023-04-24T01:55:02.865Z,67.88
2023-04-24T01:57:32.720Z,68.59
2023-04-24T02:00:00.543Z,68.93
2023-04-24T02:02:31.102Z,69.30
2023-04-24T02:04:59.418Z,69.75
2023-04-24T02:07:27.488Z,69.44
2023-04-24T02:09:56.592Z,69.67
2023-04-24T02:12:24.605Z,70.07
2023-04-24T02:14:54.678Z,70.27
2023-04-24T02:17:22.602Z,69.98
2023-04-24T02:19:50.606Z,70.37
2023-04-24T02:22:18.448Z,70.63
2023-04-24T02:24:46.292Z,70.59
2023-04-24T02:27:16.889Z,70.99
2023-04-24T02:29:44.988Z,71.03
2023-04-24T02:32:16.982Z,71.25
2023-04-24T02:34:45.254Z,71.21
2023-04-24T02:37:14.254Z,70.95
2023-04-24T02:39:42.344Z,70.95
2023-04-24T02:42:10.875Z,71.03
2023-04-24T02:44:38.696Z,71.59
2023-04-24T02:47:06.529Z,70.89
2023-04-24T02:49:35.653Z,71.56
2023-04-24T02:52:03.439Z,70.84
2023-04-24T02:54:31.506Z,70.36
2023-04-24T02:56:59.339Z,71.05
2023-04-24T02:59:28.246Z,71.47
2023-04-24T03:01:56.659Z,71.72
2023-04-24T03:04:25.019Z,71.77
2023-04-24T03:06:55.757Z,71.52
2023-04-24T03:09:23.886Z,71.43
2023-04-24T03:11:52.111Z,71.72
2023-04-24T03:14:19.974Z,71.20
2023-04-24T03:16:47.769Z,71.25
2023-04-24T03:19:15.614Z,71.45
2023-04-24T03:21:56.463Z,71.72
2023-04-24T03:24:24.321Z,72.17
2023-04-24T03:26:52.673Z,72.40
2023-04-24T03:29:48.081Z,72.33
2023-04-24T03:32:17.319Z,72.33
2023-04-24T03:34:45.751Z,72.57
2023-04-24T03:37:17.601Z,72.39
2023-04-24T03:39:51.840Z,72.31
2023-04-24T03:42:23.455Z,72.19
2023-04-24T03:44:54.300Z,72.16
2023-04-24T03:47:25.920Z,72.91
2023-04-24T03:49:56.826Z,72.86
2023-04-24T03:52:26.453Z,72.67
2023-04-24T03:54:54.243Z,72.53
2023-04-24T03:57:22.430Z,72.29
2023-04-24T04:00:05.484Z,72.42
2023-04-24T04:02:43.027Z,72.69
2023-04-24T04:05:11.738Z,72.76
2023-04-24T04:07:41.047Z,72.46
2023-04-24T04:10:10.211Z,71.92
2023-04-24T04:12:39.103Z,71.73
2023-04-24T04:15:07.926Z,72.13
2023-04-24T04:17:36.132Z,72.57
2023-04-24T04:20:10.889Z,72.12
2023-04-24T04:22:44.316Z,72.49
2023-04-24T04:25:16.324Z,72.58
2023-04-24T04:27:45.163Z,72.39
2023-04-24T04:30:14.954Z,72.54
2023-04-24T04:32:55.311Z,72.46
2023-04-24T04:35:23.527Z,72.27
2023-04-24T04:37:54.768Z,71.86
2023-04-24T04:40:31.751Z,72.02
2023-04-24T04:43:05.173Z,71.95
2023-04-24T04:45:42.465Z,72.05
2023-04-24T04:48:24.910Z,72.52
2023-04-24T04:50:53.604Z,72.85
2023-04-24T04:53:25.553Z,73.22
2023-04-24T04:55:54.862Z,73.44
2023-04-24T04:58:29.003Z,73.51
2023-04-24T05:01:00.179Z,73.28
2023-04-24T05:03:32.994Z,72.16
2023-04-24T05:06:07.629Z,71.58
2023-04-24T05:08:40.790Z,71.38
2023-04-24T05:11:12.285Z,71.26
2023-04-24T05:13:41.462Z,71.58
2023-04-24T05:16:18.517Z,71.62
2023-04-24T05:18:46.543Z,70.58
2023-04-24T05:21:17.351Z,70.30
2023-04-24T05:23:50.587Z,70.49
2023-04-24T05:26:26.623Z,70.14
2023-04-24T05:28:55.551Z,70.18
2023-04-24T05:31:23.886Z,69.66
2023-04-24T05:33:51.887Z,69.35
2023-04-24T05:36:19.813Z,69.35
2023-04-24T05:38:48.067Z,69.44
2023-04-24T05:41:17.891Z,68.79
2023-04-24T05:43:45.909Z,68.95
2023-04-24T05:46:14.035Z,68.85
2023-04-24T05:48:42.022Z,68.64
2023-04-24T05:51:12.313Z,68.91
2023-04-24T05:53:40.401Z,68.75
2023-04-24T05:56:08.626Z,68.85
2023-04-24T05:58:39.106Z,68.16
2023-04-24T06:01:07.102Z,69.29
2023-04-24T06:03:36.139Z,69.11
2023-04-24T06:06:05.661Z,68.97
2023-04-24T06:08:34.864Z,69.38
2023-04-24T06:11:04.820Z,69.54
2023-04-24T06:13:33.677Z,69.51
2023-04-24T06:16:34.731Z,69.33
2023-04-24T06:19:09.931Z,69.44
2023-04-24T06:21:38.574Z,69.14
2023-04-24T06:24:07.292Z,69.28
2023-04-24T06:26:35.140Z,69.46
2023-04-24T06:29:03.112Z,69.49
2023-04-24T06:31:30.938Z,69.31
2023-04-24T06:34:00.254Z,69.38
2023-04-24T06:36:29.132Z,69.11
2023-04-24T06:38:57.687Z,69.49
2023-04-24T06:41:26.189Z,69.80
2023-04-24T06:43:54.237Z,70.04
2023-04-24T06:46:23.364Z,70.25
2023-04-24T06:48:51.566Z,70.15
2023-04-24T06:51:20.770Z,70.04
2023-04-24T06:53:49.202Z,69.80
2023-04-24T06:56:17.511Z,69.57
2023-04-24T06:58:46.125Z,68.94
2023-04-24T07:01:14.077Z,68.76
2023-04-24T07:03:42.217Z,68.96
2023-04-24T07:06:12.260Z,69.05
2023-04-24T07:08:42.977Z,68.96
2023-04-24T07:11:11.241Z,69.00
2023-04-24T07:13:43.052Z,68.88
2023-04-24T07:16:11.605Z,69.19
2023-04-24T07:18:40.898Z,69.12
2023-04-24T07:21:09.285Z,69.38
2023-04-24T07:23:37.358Z,68.95
2023-04-24T07:26:07.124Z,69.27
2023-04-24T07:28:35.067Z,69.01
2023-04-24T07:31:03.185Z,68.42
2023-04-24T07:33:31.438Z,68.25
2023-04-24T07:35:59.655Z,67.87
2023-04-24T07:38:27.881Z,68.65
2023-04-24T07:40:56.598Z,69.33
2023-04-24T07:43:26.235Z,69.16
2023-04-24T07:45:56.686Z,69.25
2023-04-24T07:48:26.352Z,69.29
2023-04-24T07:50:54.759Z,69.07
2023-04-24T07:53:22.823Z,68.88
2023-04-24T07:55:50.892Z,68.38
2023-04-24T07:58:19.354Z,67.91
2023-04-24T08:00:49.038Z,67.90
2023-04-24T08:03:20.043Z,67.86
2023-04-24T08:05:49.596Z,67.87
2023-04-24T08:08:19.618Z,67.84
2023-04-24T08:10:48.682Z,67.21
2023-04-24T08:13:21.009Z,67.88
2023-04-24T08:15:51.452Z,67.60
2023-04-24T08:18:20.447Z,67.81
2023-04-24T08:20:48.881Z,67.34
2023-04-24T08:23:16.867Z,67.49
2023-04-24T08:25:44.905Z,67.18
2023-04-24T08:28:13.868Z,67.24
2023-04-24T08:30:43.199Z,67.40
2023-04-24T08:33:12.599Z,67.38
2023-04-24T08:35:40.578Z,67.35
2023-04-24T08:38:08.724Z,67.75
2023-04-24T08:40:37.048Z,67.15
2023-04-24T08:43:05.734Z,67.99
2023-04-24T08:45:35.559Z,68.44
2023-04-24T08:48:11.447Z,67.92
2023-04-24T08:50:46.462Z,68.21
2023-04-24T08:53:14.617Z,68.60
2023-04-24T08:55:45.884Z,68.69
2023-04-24T08:58:14.729Z,68.36
2023-04-24T09:00:48.078Z,67.38
2023-04-24T09:03:19.297Z,67.50
2023-04-24T09:05:51.361Z,67.13
2023-04-24T09:08:20.943Z,66.16
2023-04-24T09:10:51.212Z,66.04
2023-04-24T09:13:20.734Z,65.38
2023-04-24T09:15:49.230Z,65.43
2023-04-24T09:18:17.241Z,65.42
2023-04-24T09:21:03.507Z,65.23
2023-04-24T09:23:32.713Z,64.75
2023-04-24T09:26:02.752Z,64.76
2023-04-24T09:28:33.973Z,64.97
2023-04-24T09:31:07.013Z,64.62
2023-04-24T09:33:35.494Z,63.91
2023-04-24T09:36:04.952Z,64.27
2023-04-24T09:38:34.065Z,64.15
2023-04-24T09:41:05.293Z,64.79
2023-04-24T09:43:33.725Z,65.73
2023-04-24T09:46:07.850Z,66.30
2023-04-24T09:48:37.561Z,66.05
2023-04-24T09:51:11.613Z,66.02
2023-04-24T09:53:40.285Z,65.78
2023-04-24T09:56:13.803Z,64.90
2023-04-24T09:58:41.958Z,64.47
2023-04-24T10:01:09.909Z,63.24
2023-04-24T10:03:38.328Z,62.03
2023-04-24T10:06:14.911Z,61.51
2023-04-24T10:08:43.423Z,60.97
2023-04-24T10:11:12.474Z,61.07
2023-04-24T10:13:42.077Z,61.08
2023-04-24T10:16:10.419Z,60.83
2023-04-24T10:18:39.021Z,60.22
2023-04-24T10:21:07.861Z,59.44
2023-04-24T10:23:38.426Z,59.90
2023-04-24T10:26:06.577Z,59.11
2023-04-24T10:28:36.093Z,58.65
2023-04-24T10:31:04.529Z,58.67
2023-04-24T10:33:33.443Z,58.84
2023-04-24T10:36:01.834Z,58.85
2023-04-24T10:38:32.002Z,58.61
2023-04-24T10:41:10.311Z,58.11
2023-04-24T10:43:38.690Z,58.68
2023-04-24T10:46:09.824Z,58.22
2023-04-24T10:48:43.873Z,57.46
2023-04-24T10:51:15.371Z,56.73
2023-04-24T10:53:43.442Z,57.05
2023-04-24T10:56:13.287Z,57.82
2023-04-24T10:58:45.741Z,57.51
2023-04-24T11:01:26.907Z,57.28
2023-04-24T11:03:57.987Z,57.16
2023-04-24T11:06:33.621Z,57.48
2023-04-24T11:09:06.574Z,56.69
2023-04-24T11:11:37.858Z,56.30
2023-04-24T11:14:08.560Z,56.19
2023-04-24T11:16:39.589Z,56.51
2023-04-24T11:19:10.475Z,55.57
2023-04-24T11:21:43.757Z,55.84
2023-04-24T11:24:29.856Z,56.55
2023-04-24T11:27:02.624Z,55.96
2023-04-24T11:29:44.927Z,56.75
2023-04-24T11:32:21.344Z,56.18
2023-04-24T11:34:50.875Z,56.39
2023-04-24T11:37:19.145Z,56.91
2023-04-24T11:39:47.308Z,57.85
2023-04-24T11:42:18.223Z,57.47
2023-04-24T11:44:48.718Z,56.75
2023-04-24T11:47:16.819Z,57.51
2023-04-24T11:49:44.971Z,56.65
2023-04-24T11:52:12.917Z,56.15
2023-04-24T11:54:49.676Z,55.85
2023-04-24T11:57:22.745Z,56.43
2023-04-24T11:59:50.842Z,56.72
2023-04-24T12:02:26.202Z,56.90
2023-04-24T12:04:55.975Z,58.33
2023-04-24T12:07:25.715Z,58.82
2023-04-24T12:09:59.398Z,59.82
2023-04-24T12:12:29.900Z,60.67
2023-04-24T12:15:00.629Z,61.56
2023-04-24T12:17:30.297Z,62.45
2023-04-24T12:20:03.425Z,61.88
2023-04-24T12:22:46.603Z,61.55
2023-04-24T12:25:15.658Z,60.61
2023-04-24T12:27:45.908Z,59.58
2023-04-24T12:30:15.823Z,58.87
2023-04-24T12:32:45.384Z,57.57
2023-04-24T12:35:13.587Z,56.69
2023-04-24T12:37:47.280Z,56.93
2023-04-24T12:40:16.585Z,56.18
2023-04-24T12:42:47.149Z,55.23
2023-04-24T12:45:16.015Z,54.00
2023-04-24T12:47:45.028Z,53.51
2023-04-24T12:50:14.767Z,53.95
2023-04-24T12:52:43.183Z,54.24
2023-04-24T12:55:12.924Z,54.69
2023-04-24T12:57:41.912Z,55.67
2023-04-24T13:00:12.191Z,55.60
2023-04-24T13:02:40.984Z,55.92
2023-04-24T13:05:09.899Z,56.44
2023-04-24T13:07:37.730Z,57.03
2023-04-24T13:10:06.421Z,56.89
2023-04-24T13:12:34.326Z,57.54
2023-04-24T13:15:02.172Z,59.07
2023-04-24T13:17:31.598Z,59.68
2023-04-24T13:19:59.548Z,59.75
2023-04-24T13:22:28.363Z,59.70
2023-04-24T13:24:57.282Z,58.69
2023-04-24T13:27:25.105Z,58.77
2023-04-24T13:29:53.404Z,58.87
2023-04-24T13:32:21.617Z,59.06
2023-04-24T13:34:51.140Z,59.41
2023-04-24T13:37:18.899Z,58.16
2023-04-24T13:39:46.707Z,58.99
2023-04-24T13:42:15.042Z,58.21
2023-04-24T13:44:43.004Z,58.21
2023-04-24T13:47:10.952Z,58.45
2023-04-24T13:49:38.974Z,58.58
2023-04-24T13:52:08.689Z,57.74
2023-04-24T13:54:36.456Z,58.03
2023-04-24T13:57:05.030Z,57.95
2023-04-24T13:59:32.855Z,57.90
2023-04-24T14:02:00.789Z,59.16
2023-04-24T14:04:28.845Z,61.37
2023-04-24T14:06:57.215Z,64.57
2023-04-24T14:09:26.735Z,65.85
2023-04-24T14:11:54.962Z,66.46
2023-04-24T14:14:22.822Z,66.20
2023-04-24T14:16:50.867Z,65.58
2023-04-24T14:19:18.675Z,65.32
2023-04-24T14:21:46.750Z,65.10
2023-04-24T14:24:14.767Z,65.97
2023-04-24T14:26:44.160Z,65.64
2023-04-24T14:29:15.110Z,65.93
2023-04-24T14:31:43.582Z,66.20
2023-04-24T14:34:11.604Z,66.56
2023-04-24T14:36:39.878Z,66.68
2023-04-24T14:39:08.564Z,66.50
2023-04-24T14:41:37.018Z,66.07
2023-04-24T14:44:07.250Z,65.30
2023-04-24T14:46:35.331Z,65.25
2023-04-24T14:49:03.505Z,65.06
2023-04-24T14:51:31.431Z,64.65
2023-04-24T14:54:00.627Z,64.08
2023-04-24T14:56:28.403Z,64.19
2023-04-24T14:58:56.913Z,64.30
2023-04-24T15:01:26.681Z,64.65
2023-04-24T15:03:55.033Z,65.54
2023-04-24T15:06:23.191Z,66.43
2023-04-24T15:08:51.717Z,66.57
2023-04-24T15:11:19.740Z,66.79
2023-04-24T15:13:47.854Z,67.71
2023-04-24T15:16:16.488Z,68.14
2023-04-24T15:18:46.148Z,67.54
2023-04-24T15:21:14.307Z,67.64
2023-04-24T15:23:42.185Z,67.42
2023-04-24T15:26:10.310Z,68.11
2023-04-24T15:28:38.352Z,67.46
2023-04-24T15:31:06.479Z,67.92
2023-04-24T15:33:34.294Z,68.51
2023-04-24T15:36:03.605Z,68.25
2023-04-24T15:38:31.401Z,67.32
2023-04-24T15:40:59.185Z,66.60
2023-04-24T15:43:27.350Z,67.00
2023-04-24T15:45:55.160Z,68.21
2023-04-24T15:48:23.197Z,69.68
2023-04-24T15:50:51.154Z,70.08
2023-04-24T15:53:22.452Z,69.93
2023-04-24T15:55:50.743Z,69.84
2023-04-24T15:58:19.047Z,69.99
2023-04-24T16:00:47.282Z,70.08
2023-04-24T16:03:15.635Z,70.98
2023-04-24T16:05:43.931Z,71.76
2023-04-24T16:08:12.080Z,71.53
2023-04-24T16:10:41.228Z,71.71
2023-04-24T16:13:09.365Z,72.02
2023-04-24T16:15:37.574Z,72.54
2023-04-24T16:18:06.150Z,73.13
2023-04-24T16:20:34.342Z,72.44
2023-04-24T16:23:02.337Z,72.26
2023-04-24T16:25:30.387Z,72.17
2023-04-24T16:27:59.888Z,71.75
2023-04-24T16:30:28.126Z,72.20
2023-04-24T16:32:56.077Z,72.87
2023-04-24T16:35:24.206Z,73.02
2023-04-24T16:37:52.301Z,72.48
2023-04-24T16:40:20.862Z,72.88
2023-04-24T16:42:48.941Z,73.13
2023-04-24T16:45:18.533Z,73.34
2023-04-24T16:47:46.904Z,72.51
2023-04-24T16:50:15.452Z,72.00
2023-04-24T16:52:43.485Z,71.76
2023-04-24T16:55:11.786Z,71.38
2023-04-24T16:57:39.660Z,71.38
2023-04-24T17:00:09.116Z,71.19
2023-04-24T17:02:38.661Z,71.54
2023-04-24T17:05:07.502Z,72.09
2023-04-24T17:07:35.530Z,72.19
2023-04-24T17:10:04.474Z,70.94
2023-04-24T17:12:32.368Z,70.28
2023-04-24T17:15:00.229Z,70.42
2023-04-24T17:17:28.595Z,70.24
2023-04-24T17:19:59.810Z,69.62
2023-04-24T17:22:29.232Z,68.95
2023-04-24T17:24:57.121Z,68.49
2023-04-24T17:27:25.580Z,68.44
2023-04-24T17:29:53.536Z,68.16
2023-04-24T17:32:21.546Z,67.83
2023-04-24T17:34:50.281Z,67.53
2023-04-24T17:37:23.209Z,67.02
2023-04-24T17:39:51.386Z,66.84
2023-04-24T17:42:19.418Z,67.16
2023-04-24T17:44:47.516Z,67.31
2023-04-24T17:47:15.672Z,67.25
2023-04-24T17:49:43.754Z,68.45
2023-04-24T17:52:12.735Z,69.28
2023-04-24T17:54:41.892Z,68.95
2023-04-24T17:57:09.934Z,68.77
2023-04-24T17:59:37.911Z,69.14
2023-04-24T18:02:05.845Z,70.02
2023-04-24T18:04:33.975Z,71.28
2023-04-24T18:07:02.519Z,70.97
2023-04-24T18:09:30.898Z,70.99
2023-04-24T18:12:00.371Z,70.37
2023-04-24T18:14:28.483Z,69.89
2023-04-24T18:16:58.148Z,70.01
2023-04-24T18:19:26.214Z,69.34
2023-04-24T18:21:54.331Z,69.71
2023-04-24T18:24:23.234Z,69.58
2023-04-24T18:26:51.443Z,69.86
2023-04-24T18:29:21.124Z,69.87
2023-04-24T18:31:49.576Z,69.54
2023-04-24T18:34:17.495Z,68.84
2023-04-24T18:36:45.663Z,69.18
2023-04-24T18:39:13.979Z,69.22
2023-04-24T18:41:42.032Z,69.46
2023-04-24T18:44:11.521Z,69.16
2023-04-24T18:46:41.604Z,68.87
2023-04-24T18:49:09.530Z,68.79
2023-04-24T18:51:50.340Z,68.44
2023-04-24T18:54:20.750Z,67.92
2023-04-24T18:56:48.560Z,68.24
2023-04-24T18:59:19.165Z,68.74
2023-04-24T19:01:48.889Z,68.26
2023-04-24T19:04:18.223Z,68.43
2023-04-24T19:06:46.177Z,68.63
2023-04-24T19:09:14.370Z,68.77
2023-04-24T19:11:43.487Z,68.73
2023-04-24T19:14:11.539Z,68.37
2023-04-24T19:16:39.538Z,68.64
2023-04-24T19:19:08.985Z,69.10
2023-04-24T19:21:37.470Z,69.68
2023-04-24T19:24:05.974Z,70.10
2023-04-24T19:26:34.411Z,69.47
2023-04-24T19:29:03.109Z,69.51
2023-04-24T19:31:30.913Z,69.05
2023-04-24T19:33:58.878Z,69.75
2023-04-24T19:36:28.357Z,69.71
2023-04-24T19:38:56.479Z,69.46
2023-04-24T19:41:24.595Z,69.48
2023-04-24T19:43:52.616Z,68.94
2023-04-24T19:46:20.881Z,67.91
2023-04-24T19:48:49.220Z,67.16
2023-04-24T19:51:17.396Z,66.24
2023-04-24T19:53:46.604Z,65.82
2023-04-24T19:56:14.481Z,65.98
2023-04-24T19:58:42.330Z,66.04
2023-04-24T20:01:10.445Z,65.82
2023-04-24T20:03:39.064Z,67.10
2023-04-24T20:06:07.394Z,67.21
2023-04-24T20:08:38.859Z,68.10
2023-04-24T20:11:08.327Z,68.73
2023-04-24T20:13:36.468Z,68.77
2023-04-24T20:16:04.987Z,69.78
2023-04-24T20:18:33.049Z,69.52
2023-04-24T20:21:01.108Z,70.53
2023-04-24T20:23:29.084Z,70.66
2023-04-24T20:25:59.860Z,70.41
2023-04-24T20:28:30.351Z,70.36
2023-04-24T20:30:59.477Z,70.26
2023-04-24T20:33:28.093Z,70.14
2023-04-24T20:35:56.473Z,70.35
2023-04-24T20:38:24.739Z,70.16
2023-04-24T20:43:28.864Z,68.38
2023-04-24T20:45:59.380Z,67.33
2023-04-24T20:48:27.637Z,66.75
2023-04-24T20:50:56.215Z,65.92
2023-04-24T20:53:25.174Z,65.30
2023-04-24T20:55:53.472Z,65.00
2023-04-24T20:58:22.932Z,64.66
2023-04-24T21:00:52.280Z,64.24
2023-04-24T21:03:21.761Z,64.19
2023-04-24T21:05:49.782Z,63.79
2023-04-24T21:08:17.925Z,63.85
2023-04-24T21:10:45.886Z,64.05
2023-04-24T21:13:13.855Z,64.23
2023-04-24T21:15:41.743Z,64.17
2023-04-24T21:18:09.897Z,64.21
2023-04-24T21:20:39.191Z,64.30
2023-04-24T21:23:07.203Z,64.44
2023-04-24T21:25:36.216Z,63.60
2023-04-24T21:28:04.875Z,63.96
2023-04-24T21:30:32.929Z,62.99
2023-04-24T21:33:00.982Z,63.05
2023-04-24T21:35:28.967Z,62.46
2023-04-24T21:37:58.245Z,62.24
2023-04-24T21:40:26.428Z,61.93
2023-04-24T21:42:54.412Z,61.39
2023-04-24T21:45:22.428Z,61.48
2023-04-24T21:47:50.270Z,61.31
2023-04-24T21:50:18.494Z,61.00
2023-04-24T21:52:46.520Z,60.55
2023-04-24T21:55:15.931Z,60.16
2023-04-24T21:57:44.020Z,59.59
2023-04-24T22:00:13.585Z,58.69
2023-04-24T22:02:42.930Z,58.74
2023-04-24T22:05:15.798Z,58.43
2023-04-24T22:07:47.155Z,57.96
2023-04-24T22:10:19.091Z,57.95
2023-04-24T22:12:47.427Z,57.76
2023-04-24T22:15:17.868Z,58.66
2023-04-24T22:17:46.123Z,58.75
2023-04-24T22:20:14.457Z,58.83
2023-04-24T22:22:42.504Z,59.77
2023-04-24T22:25:11.252Z,60.16
2023-04-24T22:27:40.593Z,60.01
2023-04-24T22:30:10.572Z,58.90
2023-04-24T22:32:38.730Z,58.29
2023-04-24T22:35:07.468Z,57.41
2023-04-24T22:37:35.863Z,56.99
2023-04-24T22:40:05.214Z,56.99
2023-04-24T22:42:33.153Z,56.06
2023-04-24T22:45:02.661Z,56.09
2023-04-24T22:47:30.748Z,55.90
2023-04-24T22:49:59.287Z,55.81
2023-04-24T22:52:28.916Z,55.55
2023-04-24T22:54:59.129Z,55.08
2023-04-24T22:57:27.169Z,55.41
2023-04-24T22:59:55.056Z,55.55
2023-04-24T23:02:25.029Z,55.45
2023-04-24T23:04:54.346Z,55.76
2023-04-24T23:07:22.320Z,55.81
2023-04-24T23:09:51.710Z,55.79
2023-04-24T23:12:19.509Z,55.39
2023-04-24T23:14:47.268Z,54.56
2023-04-24T23:17:15.191Z,53.89
2023-04-24T23:19:44.333Z,53.58
2023-04-24T23:22:12.238Z,53.32
2023-04-24T23:24:40.068Z,53.24
2023-04-24T23:27:08.173Z,53.46
2023-04-24T23:29:36.011Z,52.93
2023-04-24T23:32:04.056Z,53.81
2023-04-24T23:34:33.978Z,53.70
2023-04-24T23:37:04.005Z,54.32
2023-04-24T23:39:31.798Z,54.29
2023-04-24T23:41:59.951Z,53.99
2023-04-24T23:44:27.860Z,54.26
2023-04-24T23:46:56.125Z,54.16
2023-04-24T23:49:23.860Z,54.50
2023-04-24T23:51:52.310Z,54.48
2023-04-24T23:54:21.667Z,53.93
2023-04-24T23:56:49.793Z,53.79
2023-04-24T23:59:20.645Z,53.77
